Airfield :
LOGIN :

Register | Disclaimer

   EN    FR    IT 

 










Legend :    VFR   Marginal VFR   IFR   Intensive IFR   Very Intensive IFR
Visi :
Ceiling :
>= 8 km
>= 3000ft
5 to 8 km
1000 to 3000 ft
1500m to 5 km
500 to 1000 ft
800 to 1500m
200 to 500 ft
< 800m
< 200 ft
Symbols :   Thunderstorms  Fog  Heavy snow  Heavy precipitations  Wind > 20 kt
SIGMETs :     Misc.  Thunderstorms  Icing  Turbulence  Mountain Waves  Volcanic Ashes







- Airport Elevation : 93 ft
- IATA code : XRY


LEJR - Jerez

CURRENT METAR :
  • 141700Z 24008KT 210V280 CAVOK 31/12 Q1015

EXPIRED METARs :
  • 141630Z 24008KT 200V280 CAVOK 31/13 Q1015
  • 141600Z 26008KT 210V300 CAVOK 32/13 Q1016
  • 141530Z 25009KT 210V290 CAVOK 32/13 Q1016
  • 141500Z 23007KT 180V290 CAVOK 31/15 Q1016
  • 141430Z 24008KT 200V280 CAVOK 31/16 Q1016

TAF TAF LEJR
Valid from the 14 at 12:00 until the 15 at 12:00 UTC


141100Z 1412/1512 23010KT CAVOK TX32/1414Z TN17/1503Z
BECMG 1420/1423 17003KT
TEMPO 1502/1509 3000 BR BKN005
PROB40
TEMPO 1502/1508 0500 FG VV001
BECMG 1509/1512 23010KT
No reported NOTAMs for that airfield.



MET'MAP, your aeronautical weather chart ! - Copyright ORBIFLY December 2007 - Disclaimer

ORBIFLY MET'MAP TEAM :

Programming & Development : Alexandra Zaïnal
Concept & Development : Baudouin d'Aumeries
Co-Development & Prog : Marc-Olivier Méhu
Technical & hardware support : Manuel Goepfert

Contact : metmap@orbifly.com




SOURCES & CREDITS :

   NOAA